Time;durP1;ratioP1;P1;durP2;ratioP2;P2;SDS_P1;SDS_P2;PMS_P1;PMS_P2;Temp;Humidity;BMP_temperature;BMP_pressure;BME280_temperature;BME280_humidity;BME280_pressure;Samples;Min_cycle;Max_cycle;Signal;HPM_P1;HPM_P2
2023/12/28 00:00:38;;;;;;;1.63;1.50;;;7.20;1.00;;;;;;5033961;28;20211;-81
2023/12/28 00:03:04;;;;;;;2.57;1.80;;;7.20;1.00;;;;;;5033738;28;20208;-80
2023/12/28 00:05:29;;;;;;;3.00;2.50;;;7.10;1.00;;;;;;5033043;28;20208;-79
2023/12/28 00:07:57;;;;;;;2.13;1.60;;;7.10;1.00;;;;;;5032892;28;20252;-78
2023/12/28 00:10:27;;;;;;;2.40;1.70;;;7.10;1.00;;;;;;5030388;28;20200;-80
2023/12/28 00:12:54;;;;;;;3.13;1.60;;;7.10;1.00;;;;;;5051439;28;20307;-80
2023/12/28 00:15:19;;;;;;;2.63;1.87;;;7.10;1.00;;;;;;5050120;28;20174;-81
2023/12/28 00:17:45;;;;;;;4.33;1.73;;;7.10;1.00;;;;;;5032349;28;20277;-80
2023/12/28 00:20:11;;;;;;;1.80;1.60;;;7.10;1.00;;;;;;5039778;28;20189;-81
2023/12/28 00:22:37;;;;;;;2.17;1.77;;;7.10;1.00;;;;;;5038129;28;20184;-80
2023/12/28 00:25:03;;;;;;;1.97;1.47;;;7.10;1.00;;;;;;5032539;28;20667;-80
2023/12/28 00:27:29;;;;;;;2.80;1.53;;;7.10;1.00;;;;;;5032151;28;20205;-81
2023/12/28 00:29:55;;;;;;;2.27;1.40;;;7.10;1.00;;;;;;5038442;28;20203;-80
2023/12/28 00:32:20;;;;;;;2.70;1.70;;;7.10;1.00;;;;;;5032732;28;20207;-80
2023/12/28 00:34:46;;;;;;;1.90;1.70;;;7.10;1.00;;;;;;5035468;28;20183;-80
2023/12/28 00:37:11;;;;;;;1.90;1.70;;;7.10;1.00;;;;;;5041106;28;20249;-80
2023/12/28 00:39:38;;;;;;;2.37;1.67;;;7.10;1.00;;;;;;5033881;28;20236;-80
2023/12/28 00:42:04;;;;;;;2.17;1.70;;;7.10;1.00;;;;;;5053543;28;20181;-80
2023/12/28 00:44:29;;;;;;;2.33;1.60;;;7.00;1.00;;;;;;5052135;28;20174;-79
2023/12/28 00:46:55;;;;;;;2.87;1.70;;;7.10;1.00;;;;;;5053448;28;20249;-80
2023/12/28 00:49:21;;;;;;;2.30;2.00;;;7.20;99.90;;;;;;5052526;28;20183;-80
2023/12/28 00:51:46;;;;;;;3.03;2.10;;;7.20;99.90;;;;;;5051985;28;20198;-80
2023/12/28 00:54:12;;;;;;;2.10;1.90;;;7.20;99.90;;;;;;5053277;28;20262;-80
2023/12/28 00:56:37;;;;;;;2.60;1.70;;;7.30;99.90;;;;;;5052018;28;20197;-80
2023/12/28 00:59:03;;;;;;;3.20;1.80;;;7.30;90.60;;;;;;5053257;28;20177;-80
2023/12/28 01:01:30;;;;;;;5.57;1.70;;;7.30;55.60;;;;;;5043740;28;20189;-78
2023/12/28 01:03:56;;;;;;;3.17;1.90;;;7.30;90.10;;;;;;5051765;28;20178;-80
2023/12/28 01:06:22;;;;;;;2.50;2.00;;;7.30;99.90;;;;;;5038740;28;20197;-80
2023/12/28 01:08:47;;;;;;;2.40;1.80;;;7.30;76.70;;;;;;5044482;28;20667;-80
2023/12/28 01:11:13;;;;;;;2.00;1.80;;;7.20;99.90;;;;;;5038650;28;20702;-81
2023/12/28 01:13:38;;;;;;;2.93;1.70;;;7.10;99.90;;;;;;5042498;28;20177;-80
2023/12/28 01:16:04;;;;;;;2.60;1.70;;;7.10;99.90;;;;;;5043039;28;20266;-81
2023/12/28 01:18:30;;;;;;;1.90;1.70;;;7.10;99.90;;;;;;5039176;28;20242;-80
2023/12/28 01:20:55;;;;;;;4.20;2.20;;;7.10;99.90;;;;;;5045685;28;20189;-81
2023/12/28 01:23:21;;;;;;;2.17;1.80;;;7.10;99.90;;;;;;5034691;28;20186;-81
2023/12/28 01:25:46;;;;;;;3.20;2.00;;;7.20;1.00;;;;;;5036013;28;20180;-80
2023/12/28 01:28:12;;;;;;;2.50;1.70;;;7.20;1.00;;;;;;5036042;28;20259;-80
2023/12/28 01:30:38;;;;;;;3.20;1.90;;;7.20;1.00;;;;;;5040627;28;20197;-81
2023/12/28 01:33:04;;;;;;;3.20;1.90;;;7.30;1.00;;;;;;5051398;28;20269;-80
2023/12/28 01:35:29;;;;;;;2.67;1.90;;;7.30;1.00;;;;;;5039087;28;20184;-79
2023/12/28 01:37:55;;;;;;;2.40;1.87;;;7.30;1.00;;;;;;5056325;28;20199;-80
2023/12/28 01:40:21;;;;;;;3.27;1.90;;;7.40;1.00;;;;;;5053570;28;20179;-81
2023/12/28 01:42:46;;;;;;;2.97;1.90;;;7.40;1.00;;;;;;5037431;28;20187;-80
2023/12/28 01:45:12;;;;;;;3.00;1.90;;;7.50;1.00;;;;;;5056845;28;20183;-80
2023/12/28 01:47:38;;;;;;;2.63;2.00;;;7.40;1.00;;;;;;5057035;28;20221;-81
2023/12/28 01:50:06;;;;;;;2.63;1.80;;;7.50;1.00;;;;;;5047317;28;20231;-80
2023/12/28 01:52:32;;;;;;;2.70;2.00;;;7.50;1.00;;;;;;5036469;28;20179;-80
2023/12/28 01:54:57;;;;;;;3.07;2.30;;;7.50;1.00;;;;;;5035120;28;20222;-80
2023/12/28 01:57:24;;;;;;;2.23;2.00;;;7.60;1.00;;;;;;5036736;28;20198;-80
2023/12/28 01:59:49;;;;;;;2.90;2.10;;;7.60;1.00;;;;;;5035356;28;20172;-80
2023/12/28 02:02:16;;;;;;;2.63;2.00;;;7.60;1.00;;;;;;5050864;28;20181;-79
2023/12/28 02:04:41;;;;;;;2.43;1.90;;;7.60;1.00;;;;;;5056688;28;20203;-80
2023/12/28 02:07:07;;;;;;;3.50;2.00;;;7.60;1.00;;;;;;5055474;28;20196;-81
2023/12/28 02:09:33;;;;;;;3.47;1.90;;;7.60;1.00;;;;;;5056268;28;20179;-80
2023/12/28 02:11:59;;;;;;;2.83;2.17;;;7.70;1.00;;;;;;5056221;28;20263;-80
2023/12/28 02:14:25;;;;;;;2.43;2.03;;;7.70;1.00;;;;;;5052756;28;20191;-80
2023/12/28 02:17:00;;;;;;;3.33;2.30;;;7.70;1.00;;;;;;5053440;28;20207;-80
2023/12/28 02:19:42;;;;;;;4.23;2.10;;;7.70;1.00;;;;;;5055436;28;20176;-81
2023/12/28 02:22:09;;;;;;;3.03;2.27;;;7.70;1.00;;;;;;5038239;28;20314;-80
2023/12/28 02:24:53;;;;;;;3.67;2.10;;;7.70;55.80;;;;;;5036197;28;20174;-81
2023/12/28 02:27:19;;;;;;;2.50;2.10;;;7.70;1.00;;;;;;5036019;28;20236;-79
2023/12/28 02:29:44;;;;;;;2.20;1.97;;;7.70;15.50;;;;;;5035796;28;20243;-81
2023/12/28 02:32:11;;;;;;;3.37;2.20;;;7.60;99.90;;;;;;5052355;28;20187;-81
2023/12/28 02:34:42;;;;;;;3.37;2.23;;;7.60;99.90;;;;;;5034483;28;20183;-80
2023/12/28 02:37:08;;;;;;;3.77;2.47;;;7.60;99.90;;;;;;5051764;28;20196;-80
2023/12/28 02:39:35;;;;;;;3.53;2.30;;;7.70;99.90;;;;;;5054406;28;20205;-81
2023/12/28 02:42:01;;;;;;;3.70;2.20;;;7.70;99.90;;;;;;5055899;28;20216;-80
2023/12/28 02:44:27;;;;;;;2.97;2.17;;;7.70;99.90;;;;;;5050248;28;20222;-80
2023/12/28 02:46:52;;;;;;;2.57;2.27;;;7.70;1.00;;;;;;5055879;28;20203;-80
2023/12/28 02:49:18;;;;;;;3.73;2.60;;;7.60;1.00;;;;;;5056017;28;20270;-81
2023/12/28 02:51:43;;;;;;;3.13;2.40;;;7.60;1.00;;;;;;5053343;28;20202;-81
2023/12/28 02:54:09;;;;;;;3.17;2.40;;;7.60;1.00;;;;;;5041228;28;20669;-81
2023/12/28 02:56:35;;;;;;;2.90;2.23;;;7.50;1.00;;;;;;5034408;28;20220;-80
2023/12/28 02:59:00;;;;;;;3.30;2.50;;;7.50;1.00;;;;;;5035904;28;20172;-81
2023/12/28 03:01:26;;;;;;;3.20;2.30;;;7.40;1.00;;;;;;5041514;28;20190;-81
2023/12/28 03:03:51;;;;;;;2.87;2.20;;;7.40;1.00;;;;;;5039759;28;20190;-80
2023/12/28 03:06:17;;;;;;;2.77;2.27;;;7.30;99.90;;;;;;5039820;28;20200;-81
2023/12/28 03:08:42;;;;;;;2.97;2.30;;;7.30;99.40;;;;;;5053632;28;20179;-80
2023/12/28 03:11:08;;;;;;;3.13;2.20;;;7.30;1.00;;;;;;5054837;28;20229;-80
2023/12/28 03:13:33;;;;;;;2.90;2.40;;;7.30;24.60;;;;;;5048050;28;20257;-80
2023/12/28 03:15:59;;;;;;;3.40;2.30;;;7.30;42.00;;;;;;5043196;28;20180;-80
2023/12/28 03:18:24;;;;;;;3.37;2.60;;;7.20;1.00;;;;;;5052530;22;20233;-83
2023/12/28 03:20:50;;;;;;;3.40;2.60;;;7.20;1.00;;;;;;4996448;28;20604;-82
2023/12/28 03:23:15;;;;;;;3.30;2.50;;;7.20;99.90;;;;;;5014138;28;20197;-83
2023/12/28 03:25:41;;;;;;;3.23;2.50;;;7.20;1.00;;;;;;5016419;28;20183;-83
2023/12/28 03:28:06;;;;;;;4.20;2.50;;;7.20;99.90;;;;;;4983823;28;20211;-83
2023/12/28 03:30:32;;;;;;;3.47;2.60;;;7.20;1.00;;;;;;4994445;28;20243;-83
2023/12/28 03:32:57;;;;;;;3.70;2.90;;;7.10;1.00;;;;;;5007674;28;20178;-83
2023/12/28 03:35:23;;;;;;;3.57;2.73;;;7.10;99.90;;;;;;4996747;28;20183;-83
2023/12/28 03:37:49;;;;;;;3.20;2.80;;;7.00;99.90;;;;;;5013835;28;20199;-83
2023/12/28 03:40:14;;;;;;;4.27;2.80;;;7.00;1.00;;;;;;5014062;28;20234;-84
2023/12/28 03:42:40;;;;;;;4.60;2.60;;;6.90;1.00;;;;;;5014087;28;20713;-83
2023/12/28 03:45:06;;;;;;;4.47;2.80;;;6.90;1.00;;;;;;4996050;28;20188;-83
2023/12/28 03:47:32;;;;;;;3.67;2.73;;;6.90;16.10;;;;;;5013454;28;20234;-83
2023/12/28 03:49:57;;;;;;;3.23;2.70;;;6.90;1.00;;;;;;5013764;28;20210;-83
2023/12/28 03:52:26;;;;;;;3.40;2.70;;;6.90;1.00;;;;;;5003797;28;20178;-83
2023/12/28 03:54:51;;;;;;;3.00;2.63;;;6.80;1.00;;;;;;5004540;28;20265;-83
2023/12/28 03:57:17;;;;;;;3.77;3.10;;;6.80;1.00;;;;;;4996088;28;20233;-83
2023/12/28 03:59:42;;;;;;;4.33;3.17;;;6.80;1.00;;;;;;5013201;28;20215;-82
2023/12/28 04:02:08;;;;;;;3.53;2.87;;;6.70;99.90;;;;;;4996405;28;20203;-83
2023/12/28 04:04:34;;;;;;;5.00;3.30;;;6.70;99.90;;;;;;4996031;28;20245;-83
2023/12/28 04:06:59;;;;;;;4.17;3.13;;;6.70;99.90;;;;;;5015837;28;20182;-83
2023/12/28 04:09:25;;;;;;;5.07;3.00;;;6.60;99.90;;;;;;5016833;28;20183;-83
2023/12/28 04:11:50;;;;;;;5.30;3.37;;;6.60;99.90;;;;;;5013678;28;20199;-82
2023/12/28 04:14:16;;;;;;;4.20;3.07;;;6.60;99.90;;;;;;5013769;28;20235;-83
2023/12/28 04:16:41;;;;;;;3.87;2.90;;;6.60;99.90;;;;;;5013275;28;20613;-82
2023/12/28 04:19:08;;;;;;;4.50;3.17;;;6.50;99.90;;;;;;4995759;28;20218;-82
2023/12/28 04:21:33;;;;;;;3.80;3.23;;;6.50;99.90;;;;;;5026040;28;20182;-83
2023/12/28 04:23:59;;;;;;;5.13;3.23;;;6.50;99.90;;;;;;4999023;28;20182;-83
2023/12/28 04:26:25;;;;;;;4.60;3.50;;;6.50;99.90;;;;;;4995904;28;20179;-83
2023/12/28 04:28:50;;;;;;;5.30;3.63;;;6.50;99.90;;;;;;4996324;28;20203;-83
2023/12/28 04:31:16;;;;;;;4.23;3.60;;;6.40;99.90;;;;;;5013169;28;20290;-83
2023/12/28 04:33:41;;;;;;;4.53;3.20;;;6.40;99.90;;;;;;4995761;28;20175;-83
2023/12/28 04:36:07;;;;;;;4.90;3.60;;;6.40;99.90;;;;;;5013255;28;20202;-83
2023/12/28 04:38:33;;;;;;;5.23;3.27;;;6.40;99.90;;;;;;5000661;28;20225;-82
2023/12/28 04:40:59;;;;;;;4.93;3.80;;;6.40;99.90;;;;;;5015278;28;20189;-83
2023/12/28 04:43:25;;;;;;;6.53;3.43;;;6.40;99.90;;;;;;5014751;28;20223;-82
2023/12/28 04:45:51;;;;;;;4.83;3.30;;;6.40;99.90;;;;;;5002409;28;20182;-82
2023/12/28 04:48:20;;;;;;;5.87;3.87;;;6.40;99.90;;;;;;5012116;28;20260;-83
2023/12/28 04:50:47;;;;;;;4.53;3.60;;;6.30;99.90;;;;;;4995499;28;20336;-83
2023/12/28 04:53:13;;;;;;;5.37;3.70;;;6.30;99.90;;;;;;5001496;28;20177;-84
2023/12/28 04:55:39;;;;;;;4.13;3.27;;;6.30;99.90;;;;;;5015005;28;20178;-83
2023/12/28 04:58:05;;;;;;;4.07;3.20;;;6.30;99.90;;;;;;5005381;28;20285;-81
2023/12/28 05:00:30;;;;;;;4.30;3.23;;;6.30;99.90;;;;;;4995242;28;20179;-83
2023/12/28 05:02:56;;;;;;;4.37;3.50;;;6.30;99.90;;;;;;4993201;28;20241;-83
2023/12/28 05:05:21;;;;;;;4.17;3.20;;;6.40;99.90;;;;;;4993396;28;20628;-83
2023/12/28 05:07:47;;;;;;;4.40;3.23;;;6.40;99.90;;;;;;4975589;28;20370;-82
2023/12/28 05:10:13;;;;;;;5.60;3.30;;;6.40;99.90;;;;;;5005826;28;20663;-83
2023/12/28 05:12:38;;;;;;;3.87;3.00;;;6.40;99.90;;;;;;4995581;28;20179;-82
2023/12/28 05:15:04;;;;;;;4.60;3.20;;;6.40;99.90;;;;;;4995167;28;20179;-82
2023/12/28 05:17:30;;;;;;;5.77;3.47;;;6.40;99.90;;;;;;5027089;28;20209;-83
2023/12/28 05:19:56;;;;;;;3.53;3.20;;;6.50;99.90;;;;;;5026348;28;20247;-82
2023/12/28 05:22:21;;;;;;;3.93;3.10;;;6.40;99.90;;;;;;4996998;28;20182;-83
2023/12/28 05:24:47;;;;;;;4.83;3.40;;;6.40;99.90;;;;;;5012701;28;20170;-82
2023/12/28 05:27:12;;;;;;;4.33;3.30;;;6.40;99.90;;;;;;4995224;28;20206;-83
2023/12/28 05:29:38;;;;;;;3.90;3.10;;;6.40;99.90;;;;;;4995356;28;20167;-84
2023/12/28 05:32:05;;;;;;;3.77;3.10;;;6.40;99.90;;;;;;4995089;28;20285;-83
2023/12/28 05:34:30;;;;;;;6.63;3.17;;;6.40;99.90;;;;;;4995073;28;20184;-83
2023/12/28 05:36:56;;;;;;;6.50;3.13;;;6.40;99.90;;;;;;5012955;28;20383;-83
2023/12/28 05:39:21;;;;;;;4.63;3.20;;;6.50;99.90;;;;;;5012504;28;20182;-83
2023/12/28 05:41:47;;;;;;;4.07;3.30;;;6.50;99.90;;;;;;4995000;28;20202;-84
2023/12/28 05:44:14;;;;;;;4.60;3.27;;;6.50;99.90;;;;;;5012694;28;20187;-83
2023/12/28 05:46:39;;;;;;;3.87;3.17;;;6.60;99.90;;;;;;5012923;28;20182;-83
2023/12/28 05:49:05;;;;;;;5.37;3.70;;;6.60;99.90;;;;;;4995397;28;20310;-82
2023/12/28 05:51:40;;;;;;;4.43;3.20;;;6.60;99.90;;;;;;5012751;28;20242;-82
2023/12/28 05:54:06;;;;;;;4.00;3.30;;;6.60;99.90;;;;;;4995440;28;20181;-82
2023/12/28 05:56:31;;;;;;;5.37;3.37;;;6.60;99.90;;;;;;5014183;28;20241;-84
2023/12/28 05:58:57;;;;;;;5.13;3.43;;;6.60;99.90;;;;;;4995540;28;20226;-82
2023/12/28 06:01:22;;;;;;;5.07;3.40;;;6.60;99.90;;;;;;5018330;28;20178;-84
2023/12/28 06:03:50;;;;;;;3.80;3.40;;;6.70;99.90;;;;;;5002683;28;20246;-86
2023/12/28 06:06:15;;;;;;;4.57;3.53;;;6.70;99.90;;;;;;5018283;28;20190;-85
2023/12/28 06:08:41;;;;;;;3.90;3.37;;;6.70;99.90;;;;;;5016954;28;20199;-87
2023/12/28 06:11:06;;;;;;;4.87;3.50;;;6.80;99.90;;;;;;5010875;28;20256;-85
2023/12/28 06:13:32;;;;;;;3.93;3.10;;;6.80;99.90;;;;;;5018693;28;20177;-84
2023/12/28 06:15:58;;;;;;;5.13;3.63;;;6.80;99.90;;;;;;5035781;28;20616;-83
2023/12/28 06:18:23;;;;;;;8.87;4.20;;;6.80;99.90;;;;;;5018033;28;20256;-84
2023/12/28 06:20:49;;;;;;;4.10;3.70;;;6.80;99.90;;;;;;5035694;28;20183;-85
2023/12/28 06:23:14;;;;;;;5.07;3.80;;;6.80;99.90;;;;;;5035442;28;20175;-86
2023/12/28 06:25:40;;;;;;;4.30;3.63;;;6.80;99.90;;;;;;5013350;28;20180;-81
2023/12/28 06:28:06;;;;;;;4.57;3.53;;;6.90;99.90;;;;;;5017696;28;20634;-83
2023/12/28 06:30:31;;;;;;;5.97;3.37;;;6.90;99.90;;;;;;5034393;28;20306;-82
2023/12/28 06:32:57;;;;;;;5.60;4.33;;;6.90;99.90;;;;;;5029105;28;20189;-83
2023/12/28 06:35:22;;;;;;;5.27;3.57;;;6.90;99.90;;;;;;4998673;28;20209;-81
2023/12/28 06:37:48;;;;;;;4.00;3.50;;;6.90;99.90;;;;;;5015475;28;20210;-83
2023/12/28 06:40:13;;;;;;;5.90;3.73;;;6.90;99.90;;;;;;4998453;28;20178;-82
2023/12/28 06:42:39;;;;;;;4.70;3.60;;;7.00;99.90;;;;;;5015637;28;20176;-83
2023/12/28 06:45:05;;;;;;;5.80;3.13;;;7.00;99.90;;;;;;4997978;28;20533;-83
2023/12/28 06:47:31;;;;;;;4.20;3.57;;;7.20;99.90;;;;;;5016332;28;20206;-81
2023/12/28 06:49:56;;;;;;;4.57;3.23;;;7.20;99.90;;;;;;5035400;28;20265;-81
2023/12/28 06:52:22;;;;;;;5.13;3.53;;;7.20;99.90;;;;;;5028221;28;20184;-80
2023/12/28 06:54:51;;;;;;;4.70;3.50;;;7.10;99.90;;;;;;5016808;28;20171;-81
2023/12/28 06:57:16;;;;;;;4.20;3.37;;;7.10;99.90;;;;;;5016950;28;20690;-81
2023/12/28 06:59:42;;;;;;;4.80;3.57;;;7.00;99.90;;;;;;5036440;28;20177;-80
2023/12/28 07:02:07;;;;;;;6.10;3.20;;;7.00;99.90;;;;;;5016874;28;20212;-82
2023/12/28 07:04:33;;;;;;;5.53;3.40;;;7.10;99.90;;;;;;5036271;28;20174;-81
2023/12/28 07:06:58;;;;;;;5.33;3.50;;;7.00;99.90;;;;;;5032769;28;20602;-81
2023/12/28 07:09:24;;;;;;;4.93;3.27;;;7.10;99.90;;;;;;5016665;28;20245;-81
2023/12/28 07:11:49;;;;;;;4.53;3.33;;;7.10;99.90;;;;;;5017683;28;20201;-81
2023/12/28 07:14:15;;;;;;;4.20;3.47;;;7.10;99.90;;;;;;5005741;28;20271;-81
2023/12/28 07:16:40;;;;;;;6.93;3.70;;;7.10;99.90;;;;;;5020551;28;20205;-81
2023/12/28 07:19:06;;;;;;;5.17;3.73;;;7.10;99.90;;;;;;5009345;28;20207;-82
2023/12/28 07:21:32;;;;;;;4.57;3.70;;;7.10;99.90;;;;;;5033971;28;20174;-82
2023/12/28 07:23:57;;;;;;;4.90;3.67;;;7.10;99.90;;;;;;5017032;28;20217;-82
2023/12/28 07:26:23;;;;;;;4.57;3.10;;;7.10;99.90;;;;;;5001566;28;20183;-82
2023/12/28 07:28:49;;;;;;;5.80;3.50;;;7.20;99.90;;;;;;5015094;28;20210;-81
2023/12/28 07:31:24;;;;;;;5.03;3.70;;;7.10;99.90;;;;;;5014354;28;20228;-82
2023/12/28 07:33:50;;;;;;;3.67;3.13;;;7.20;99.90;;;;;;5014551;28;20175;-83
2023/12/28 07:36:15;;;;;;;4.10;3.37;;;7.20;99.90;;;;;;5014278;28;20186;-83
2023/12/28 07:38:41;;;;;;;3.67;3.07;;;7.20;99.90;;;;;;5012219;28;20223;-82
2023/12/28 07:41:07;;;;;;;4.90;3.40;;;7.20;99.90;;;;;;4987854;28;20190;-82
2023/12/28 07:43:32;;;;;;;5.50;3.60;;;7.20;99.90;;;;;;4998099;28;20227;-80
2023/12/28 07:45:58;;;;;;;5.57;3.50;;;7.20;99.90;;;;;;5002306;28;20170;-81
2023/12/28 07:48:23;;;;;;;3.40;3.10;;;7.30;99.90;;;;;;5013992;28;20234;-82
2023/12/28 07:50:51;;;;;;;4.37;3.50;;;7.30;99.90;;;;;;4996262;28;20211;-82
2023/12/28 07:53:17;;;;;;;4.83;3.40;;;7.40;99.90;;;;;;5014362;28;20237;-82
2023/12/28 07:55:42;;;;;;;4.93;2.90;;;7.40;99.90;;;;;;5013662;28;20171;-82
2023/12/28 07:58:08;;;;;;;3.90;3.10;;;7.40;99.90;;;;;;5014306;28;20539;-82
2023/12/28 08:00:33;;;;;;;3.50;3.07;;;7.40;99.90;;;;;;5000874;28;20231;-80
2023/12/28 08:02:59;;;;;;;4.63;3.00;;;7.40;99.90;;;;;;5034045;28;20580;-81
2023/12/28 08:05:24;;;;;;;3.90;2.87;;;7.50;99.90;;;;;;5012820;28;20175;-81
2023/12/28 08:07:50;;;;;;;5.43;3.23;;;7.50;99.90;;;;;;4999461;28;20212;-82
2023/12/28 08:10:16;;;;;;;4.43;2.90;;;7.50;99.90;;;;;;5016549;28;20276;-81
2023/12/28 08:12:43;;;;;;;3.30;2.97;;;7.50;99.90;;;;;;5016771;28;20180;-81
2023/12/28 08:15:08;;;;;;;5.03;2.80;;;7.50;99.90;;;;;;5034622;28;20627;-79
2023/12/28 08:17:34;;;;;;;3.87;3.00;;;7.50;99.90;;;;;;5016792;28;20302;-79
2023/12/28 08:20:00;;;;;;;3.77;2.73;;;7.50;99.90;;;;;;5016244;28;20169;-80
2023/12/28 08:22:25;;;;;;;4.17;2.70;;;7.50;99.90;;;;;;5016323;28;20180;-81
2023/12/28 08:24:51;;;;;;;3.73;2.60;;;7.50;99.90;;;;;;5016446;28;20202;-81
2023/12/28 08:27:16;;;;;;;3.77;2.50;;;7.50;99.90;;;;;;5015740;28;20195;-79
2023/12/28 08:29:42;;;;;;;4.03;2.60;;;7.50;99.90;;;;;;5015835;28;20184;-80
2023/12/28 08:32:08;;;;;;;3.13;2.43;;;7.50;99.90;;;;;;5000120;28;20272;-82
2023/12/28 08:34:33;;;;;;;4.40;2.50;;;7.50;99.90;;;;;;4996625;28;20547;-80
2023/12/28 08:36:59;;;;;;;3.27;2.07;;;7.50;99.90;;;;;;5013087;28;20266;-80
2023/12/28 08:39:24;;;;;;;2.93;2.47;;;7.50;99.90;;;;;;5019561;28;20171;-81
2023/12/28 08:41:50;;;;;;;2.57;1.83;;;7.60;99.90;;;;;;5009556;28;20274;-80
2023/12/28 08:44:16;;;;;;;2.57;2.37;;;7.60;99.90;;;;;;4996582;28;20560;-80
2023/12/28 08:46:41;;;;;;;2.80;2.20;;;7.60;99.90;;;;;;5019302;28;20613;-78
2023/12/28 08:49:07;;;;;;;3.60;2.00;;;7.60;99.90;;;;;;5024806;28;20315;-80
2023/12/28 08:51:32;;;;;;;2.43;2.20;;;7.60;99.90;;;;;;4998681;28;20257;-80
2023/12/28 08:53:58;;;;;;;3.53;2.20;;;7.60;99.90;;;;;;5022119;28;20176;-79
2023/12/28 08:56:23;;;;;;;2.43;2.17;;;7.70;99.90;;;;;;5029875;28;20178;-77
2023/12/28 08:58:50;;;;;;;2.47;2.10;;;7.70;99.90;;;;;;5012904;28;20212;-76
2023/12/28 09:01:25;;;;;;;2.47;2.20;;;7.70;99.90;;;;;;4995054;28;20179;-78
2023/12/28 09:03:51;;;;;;;3.10;2.10;;;7.70;99.90;;;;;;5012849;28;20243;-77
2023/12/28 09:06:18;;;;;;;2.57;2.10;;;7.70;99.90;;;;;;5012764;28;20191;-76
2023/12/28 09:08:44;;;;;;;2.60;2.20;;;7.80;99.90;;;;;;5012484;28;20273;-75
2023/12/28 09:11:11;;;;;;;2.50;1.97;;;7.80;99.90;;;;;;5017274;28;20720;-78
2023/12/28 09:13:38;;;;;;;2.60;1.93;;;7.80;99.90;;;;;;5012626;28;20175;-78
2023/12/28 09:16:03;;;;;;;2.83;2.10;;;7.80;99.90;;;;;;5012824;28;20180;-76
2023/12/28 09:18:29;;;;;;;2.27;1.97;;;7.80;99.90;;;;;;5065959;22;20760;-80
2023/12/28 09:20:55;;;;;;;2.67;2.17;;;7.90;99.90;;;;;;5015234;28;20186;-81
2023/12/28 09:23:20;;;;;;;2.53;1.90;;;7.90;99.90;;;;;;5033756;28;20233;-80
2023/12/28 09:25:46;;;;;;;3.60;2.37;;;7.80;99.90;;;;;;5015972;28;20181;-80
2023/12/28 09:28:13;;;;;;;2.37;2.10;;;7.80;99.90;;;;;;5015327;28;20295;-80
2023/12/28 09:30:38;;;;;;;2.87;2.10;;;7.90;99.90;;;;;;5018538;28;20201;-80
2023/12/28 09:33:04;;;;;;;3.20;1.93;;;7.90;99.90;;;;;;4996850;28;20531;-81
2023/12/28 09:35:29;;;;;;;3.93;2.37;;;7.90;99.90;;;;;;4995227;28;20184;-80
2023/12/28 09:37:56;;;;;;;2.60;2.20;;;7.90;99.90;;;;;;4996952;28;20748;-81
2023/12/28 09:40:21;;;;;;;4.87;2.33;;;7.90;99.90;;;;;;4995067;28;20278;-78
2023/12/28 09:43:11;;;;;;;3.10;1.93;;;8.10;99.90;;;;;;5010711;28;20327;-79
2023/12/28 09:45:37;;;;;;;2.40;2.20;;;8.20;99.90;;;;;;5020993;28;20169;-80
2023/12/28 09:48:04;;;;;;;2.13;1.93;;;8.10;99.90;;;;;;4999680;28;20295;-81
2023/12/28 09:50:30;;;;;;;4.93;2.37;;;8.10;99.90;;;;;;4999132;28;20243;-81
2023/12/28 09:52:55;;;;;;;4.03;2.00;;;8.30;99.90;;;;;;5000723;28;20181;-83
2023/12/28 09:55:21;;;;;;;3.50;2.00;;;8.20;99.90;;;;;;5020054;28;20184;-80
2023/12/28 09:57:47;;;;;;;2.73;2.10;;;8.20;99.90;;;;;;5000086;28;20207;-80
2023/12/28 10:00:13;;;;;;;2.83;2.43;;;8.10;99.90;;;;;;5009416;28;20543;-80
2023/12/28 10:02:44;;;;;;;2.23;2.00;;;8.10;99.90;;;;;;5007294;28;20172;-81
2023/12/28 10:05:14;;;;;;;2.40;2.20;;;8.10;99.90;;;;;;5017004;28;20189;-81
2023/12/28 10:07:47;;;;;;;3.47;2.20;;;8.10;99.90;;;;;;4998745;28;20196;-81
2023/12/28 10:10:13;;;;;;;3.37;2.17;;;8.20;99.90;;;;;;4992055;28;20177;-81
2023/12/28 10:12:39;;;;;;;3.30;2.37;;;8.20;99.90;;;;;;5017006;28;20220;-81
2023/12/28 10:15:05;;;;;;;2.40;1.87;;;8.30;99.90;;;;;;5017256;28;20176;-83
2023/12/28 10:17:35;;;;;;;3.03;2.60;;;8.30;99.90;;;;;;4998993;28;20210;-82
2023/12/28 10:20:04;;;;;;;2.57;2.27;;;8.30;99.90;;;;;;5017075;28;20164;-82
2023/12/28 10:22:33;;;;;;;2.83;2.10;;;8.40;99.90;;;;;;4999482;28;20777;-82
2023/12/28 10:24:59;;;;;;;3.73;2.10;;;8.70;99.90;;;;;;4997872;28;20557;-83
2023/12/28 10:27:26;;;;;;;3.67;2.07;;;8.80;99.90;;;;;;5015006;28;20213;-83
2023/12/28 10:29:55;;;;;;;3.03;2.23;;;8.70;99.90;;;;;;5015567;28;20187;-79
2023/12/28 10:32:22;;;;;;;2.70;2.20;;;8.80;99.90;;;;;;5016251;28;20201;-82
2023/12/28 10:34:48;;;;;;;2.23;2.03;;;8.80;99.90;;;;;;4998253;28;20174;-82
2023/12/28 10:37:16;;;;;;;4.27;2.03;;;8.90;99.90;;;;;;4997590;28;20610;-82
2023/12/28 10:39:46;;;;;;;3.27;2.10;;;8.90;99.90;;;;;;4997523;28;20210;-82
2023/12/28 10:42:16;;;;;;;2.93;1.90;;;9.00;99.90;;;;;;5005074;28;20276;-82
2023/12/28 10:44:46;;;;;;;2.70;1.87;;;9.20;70.30;;;;;;5015189;28;20187;-83
2023/12/28 10:47:17;;;;;;;2.53;1.90;;;9.20;1.00;;;;;;4989694;28;20237;-81
2023/12/28 10:49:46;;;;;;;3.43;2.20;;;9.30;23.80;;;;;;5011141;28;20178;-82
2023/12/28 10:52:16;;;;;;;2.00;1.80;;;9.40;1.00;;;;;;5014593;28;20293;-82
2023/12/28 10:55:03;;;;;;;3.17;2.03;;;9.50;1.00;;;;;;4996828;28;20205;-82
2023/12/28 10:57:44;;;;;;;3.20;1.87;;;9.70;1.00;;;;;;5001088;28;20209;-82
2023/12/28 11:00:13;;;;;;;2.50;1.90;;;9.90;1.00;;;;;;4997152;28;20201;-82
2023/12/28 11:02:44;;;;;;;3.20;2.10;;;9.80;1.00;;;;;;4998161;28;20182;-81
2023/12/28 11:05:11;;;;;;;5.53;2.43;;;9.90;1.00;;;;;;5009984;28;20274;-82
2023/12/28 11:07:39;;;;;;;2.77;2.00;;;10.20;1.00;;;;;;5014909;28;20199;-83
2023/12/28 11:10:06;;;;;;;3.37;2.07;;;10.20;17.50;;;;;;5014693;28;20171;-81
2023/12/28 11:12:32;;;;;;;1.90;1.70;;;10.20;99.90;;;;;;5014645;28;20179;-82
2023/12/28 11:14:59;;;;;;;2.30;1.80;;;10.20;99.90;;;;;;5014526;28;20182;-82
2023/12/28 11:17:25;;;;;;;2.20;1.77;;;10.10;99.90;;;;;;5014376;28;20208;-83
2023/12/28 11:19:53;;;;;;;3.13;1.77;;;10.10;1.00;;;;;;4997044;28;20171;-82
2023/12/28 11:22:20;;;;;;;3.23;1.60;;;10.10;99.90;;;;;;5014755;28;20179;-81
2023/12/28 11:24:46;;;;;;;2.37;1.90;;;10.10;99.90;;;;;;5014629;28;20175;-82
2023/12/28 11:27:12;;;;;;;4.20;1.80;;;10.10;1.00;;;;;;4997281;28;20183;-81
2023/12/28 11:29:38;;;;;;;3.07;1.90;;;10.10;1.00;;;;;;4997044;28;20270;-78
2023/12/28 11:32:04;;;;;;;2.23;1.80;;;10.10;55.60;;;;;;4999069;28;20286;-81
2023/12/28 11:34:33;;;;;;;3.10;1.77;;;9.90;99.90;;;;;;5002270;28;20174;-79
2023/12/28 11:37:03;;;;;;;1.93;1.73;;;9.70;1.00;;;;;;4997113;28;20554;-78
2023/12/28 11:39:35;;;;;;;2.63;2.00;;;9.50;1.00;;;;;;5014485;28;20282;-83
2023/12/28 11:42:03;;;;;;;2.90;2.00;;;9.50;1.00;;;;;;4995280;28;20183;-81
2023/12/28 11:44:29;;;;;;;3.10;2.03;;;9.30;99.90;;;;;;5001349;28;20183;-81
2023/12/28 11:46:56;;;;;;;13.70;6.07;;;9.30;1.00;;;;;;4999968;28;20699;-81
2023/12/28 11:49:29;;;;;;;4.07;2.00;;;9.40;1.00;;;;;;4999279;28;20225;-82
2023/12/28 11:51:57;;;;;;;20.03;8.20;;;9.30;1.00;;;;;;4997402;28;20209;-81
2023/12/28 11:54:26;;;;;;;46.17;16.27;;;9.30;6.20;;;;;;5014106;28;20182;-81
2023/12/28 11:56:52;;;;;;;15.53;6.50;;;9.40;14.20;;;;;;5014700;28;20616;-81
2023/12/28 11:59:19;;;;;;;14.53;5.83;;;9.80;1.00;;;;;;5014475;28;20256;-81
2023/12/28 12:01:52;;;;;;;9.20;4.23;;;10.10;1.00;;;;;;4996537;28;20682;-82
2023/12/28 12:04:19;;;;;;;3.53;2.50;;;10.10;99.90;;;;;;4996880;28;20176;-81
2023/12/28 12:06:48;;;;;;;5.07;2.57;;;10.10;1.00;;;;;;5013947;28;20238;-80
2023/12/28 12:09:22;;;;;;;3.30;2.40;;;9.90;99.90;;;;;;4996434;28;20636;-80
2023/12/28 12:11:48;;;;;;;4.30;2.40;;;9.60;99.90;;;;;;4996074;28;20201;-80
2023/12/28 12:14:13;;;;;;;2.87;1.90;;;9.80;99.90;;;;;;4997170;28;20175;-82
2023/12/28 12:16:39;;;;;;;3.33;2.63;;;9.90;99.90;;;;;;4992992;28;20210;-79
2023/12/28 12:19:06;;;;;;;5.80;3.13;;;10.00;1.00;;;;;;5005945;28;20218;-81
2023/12/28 12:21:33;;;;;;;5.93;2.53;;;10.00;99.90;;;;;;4996239;28;20198;-82
2023/12/28 12:23:59;;;;;;;3.87;2.63;;;10.00;1.00;;;;;;5006054;28;20183;-80
2023/12/28 12:26:26;;;;;;;4.63;3.03;;;10.20;1.00;;;;;;4995983;28;20187;-82
2023/12/28 12:28:51;;;;;;;6.10;3.17;;;10.40;99.90;;;;;;5013540;28;20347;-81
2023/12/28 12:31:17;;;;;;;3.30;1.90;;;10.50;99.90;;;;;;5013880;28;20202;-80
2023/12/28 12:33:43;;;;;;;2.47;1.80;;;10.60;99.90;;;;;;5013138;28;20236;-81
2023/12/28 12:36:09;;;;;;;2.93;1.70;;;10.80;1.00;;;;;;5013467;28;20234;-79
2023/12/28 12:38:35;;;;;;;1.87;1.60;;;10.70;1.00;;;;;;4995348;28;20245;-81
2023/12/28 12:41:00;;;;;;;1.70;1.60;;;10.70;1.00;;;;;;5012895;28;20229;-82
2023/12/28 12:43:27;;;;;;;2.33;1.70;;;10.60;99.90;;;;;;4995198;28;20179;-82
2023/12/28 12:45:53;;;;;;;3.43;2.00;;;10.60;1.00;;;;;;4994929;28;20210;-81
2023/12/28 12:48:18;;;;;;;2.90;1.73;;;10.70;1.00;;;;;;4995081;28;20199;-82
2023/12/28 12:50:45;;;;;;;3.67;1.70;;;10.80;1.00;;;;;;5012925;28;20209;-81
2023/12/28 12:53:11;;;;;;;1.67;1.47;;;10.70;99.90;;;;;;5013152;28;20177;-81
2023/12/28 12:55:39;;;;;;;2.27;1.87;;;10.60;1.00;;;;;;5013079;28;20232;-82